Temp: 4.3°C   Baro: 1017.1mb
  Wind: 0.0mph   Dir: NNW (342°)
  Rain: 0.0mm (0.0mm/hr)
  Solar: 0W/m2  Hum: 84%

Historic data

Bath Spa Weather Station Historical Data
Daily Summary for June 9, 2021 Units:  Metric    English   Both
Daily Weekly Monthly Yearly Custom
  High: Low: Average:
Temperature: 14.3 °C 8.3 °C 11.7 °C
Dew Point: 11.8 °C 7.8 °C 10.4 °C
Humidity: 94% 80% 89%
Wind Speed: 17.4km/h 0km/h 5.1km/h
Wind Gust: 24.1km/h - -
Wind- - SW
Pressure: 1023.9 hPa 1022.6 hPa -
Precipitation: 0 mm    
Historical Graphs
 
 
Tabular Data for June 9, 2021
Time Temperature Dew Point Pressure Wind Wind Speed Wind Gust Humidity Rainfall Rate (Hourly) solar
00:04 11 °C 10.2 °C 1023.6 hPa WSW 1 km/h 4.8 km/h 92% 0 mm 0 W/m2
00:09 10.9 °C 10.1 °C 1023.6 hPa WSW 2.6 km/h 6.4 km/h 92% 0 mm 0 W/m2
00:14 10.9 °C 10.2 °C 1023.6 hPa WSW 0.6 km/h 6.4 km/h 92.2% 0 mm 0 W/m2
00:19 10.9 °C 10.3 °C 1023.6 hPa WSW 3.1 km/h 8 km/h 93% 0 mm 0 W/m2
00:24 10.8 °C 10.3 °C 1023.6 hPa WSW 3.2 km/h 8 km/h 93% 0 mm 0 W/m2
00:29 10.8 °C 10.2 °C 1023.2 hPa WSW 1.3 km/h 3.2 km/h 93% 0 mm 0 W/m2
00:34 10.8 °C 9.9 °C 1023.2 hPa WSW 0.3 km/h 1.6 km/h 92% 0 mm 0 W/m2
00:39 10.7 °C 9.9 °C 1023.2 hPa Calm     92.2% 0 mm 0 W/m2
00:44 10.6 °C 10 °C 1023.2 hPa Calm     93% 0 mm 0 W/m2
00:49 10.5 °C 9.9 °C 1023.2 hPa Calm   3.2 km/h 93% 0 mm 0 W/m2
00:54 10.4 °C 9.7 °C 1023.2 hPa WSW 0.3 km/h 3.2 km/h 92.4% 0 mm 0 W/m2
00:59 10.3 °C 9.7 °C 1023.2 hPa Calm   1.6 km/h 93% 0 mm 0 W/m2
01:04 10.3 °C 9.7 °C 1023.2 hPa Calm     93% 0 mm 0 W/m2
01:09 10.2 °C 9.7 °C 1023.2 hPa Calm   1.6 km/h 93% 0 mm 0 W/m2
01:14 10.2 °C 9.6 °C 1023.2 hPa Calm   1.6 km/h 93% 0 mm 0 W/m2
01:19 10.1 °C 9.5 °C 1023.2 hPa WSW 0.3 km/h 1.6 km/h 93% 0 mm 0 W/m2
01:24 10.1 °C 9.5 °C 1023.2 hPa WSW 1.6 km/h 6.4 km/h 93% 0 mm 0 W/m2
01:29 10.2 °C 9.6 °C 1023.2 hPa WSW 3.7 km/h 6.4 km/h 93% 0 mm 0 W/m2
01:34 10.1 °C 9.5 °C 1023.2 hPa WSW 3.4 km/h 8 km/h 93% 0 mm 0 W/m2
01:39 10.2 °C 9.6 °C 1023.2 hPa WSW 2.7 km/h 8 km/h 93% 0 mm 0 W/m2
01:44 10.2 °C 9.6 °C 1023.2 hPa WSW 4.5 km/h 8 km/h 93% 0 mm 0 W/m2
01:49 10.3 °C 9.7 °C 1023.2 hPa WSW 2.7 km/h 6.4 km/h 93% 0 mm 0 W/m2
01:54 10.3 °C 9.7 °C 1023.2 hPa WSW 2.7 km/h 8 km/h 93% 0 mm 0 W/m2
01:59 10.2 °C 9.6 °C 1023.2 hPa WSW 3.4 km/h 4.8 km/h 93% 0 mm 0 W/m2
02:04 10.3 °C 9.7 °C 1023.2 hPa WSW 3.2 km/h 6.4 km/h 93% 0 mm 0 W/m2
02:09 10.2 °C 9.6 °C 1023.2 hPa WSW 3.1 km/h 8 km/h 93% 0 mm 0 W/m2
02:14 10.3 °C 9.7 °C 1023.2 hPa WSW 3.2 km/h 6.4 km/h 93% 0 mm 0 W/m2
02:19 10.3 °C 9.7 °C 1023.2 hPa WSW 2.9 km/h 6.4 km/h 93% 0 mm 0 W/m2
02:24 10.4 °C 9.8 °C 1023.2 hPa WSW 2.6 km/h 6.4 km/h 93% 0 mm 0 W/m2
02:29 10.4 °C 9.8 °C 1023.2 hPa WSW 2.9 km/h 6.4 km/h 93% 0 mm 0 W/m2
02:34 10.4 °C 9.8 °C 1023.2 hPa WSW 1.8 km/h 4.8 km/h 93% 0 mm 0 W/m2
02:39 10.4 °C 9.8 °C 1023.2 hPa WSW 1.4 km/h 4.8 km/h 93% 0 mm 0 W/m2
02:44 10.4 °C 9.8 °C 1023.2 hPa WSW 2.1 km/h 6.4 km/h 93% 0 mm 0 W/m2
02:49 10.3 °C 9.7 °C 1023.2 hPa WSW 0.6 km/h 4.8 km/h 93% 0 mm 0 W/m2
02:54 10.2 °C 9.6 °C 1023.2 hPa Calm   3.2 km/h 93% 0 mm 0 W/m2
02:59 10.2 °C 9.6 °C 1023.2 hPa WSW 1.3 km/h 4.8 km/h 93% 0 mm 0 W/m2
03:04 10.1 °C 9.5 °C 1023.2 hPa WSW 1.3 km/h 4.8 km/h 93% 0 mm 0 W/m2
03:09 10.2 °C 9.6 °C 1023.2 hPa WSW 2.3 km/h 4.8 km/h 93% 0 mm 0 W/m2
03:14 10.2 °C 9.6 °C 1023.2 hPa WSW 1.3 km/h 6.4 km/h 93% 0 mm 0 W/m2
03:19 10.3 °C 9.7 °C 1023.2 hPa WSW 3.5 km/h 9.7 km/h 93% 0 mm 0 W/m2
03:24 10.4 °C 9.8 °C 1023.2 hPa WSW 2.9 km/h 8 km/h 93% 0 mm 0 W/m2
03:29 10.4 °C 9.8 °C 1023.2 hPa WSW 1.9 km/h 8 km/h 93% 0 mm 0 W/m2
03:34 10.5 °C 9.9 °C 1023.2 hPa WSW 1.4 km/h 8 km/h 93% 0 mm 0 W/m2
03:38 10.6 °C 10 °C 1023.2 hPa WSW 4 km/h 8 km/h 93% 0 mm 0 W/m2
03:44 10.6 °C 10 °C 1022.9 hPa WSW 2.7 km/h 6.4 km/h 93% 0 mm 0 W/m2
03:49 10.7 °C 10.1 °C 1022.9 hPa WSW 1.4 km/h 6.4 km/h 93% 0 mm 0 W/m2
03:54 10.6 °C 10 °C 1023.2 hPa WSW 3.9 km/h 6.4 km/h 93% 0 mm 0 W/m2
03:59 10.6 °C 10 °C 1022.9 hPa WSW 2.6 km/h 4.8 km/h 93% 0 mm 0 W/m2
04:04 10.6 °C 10 °C 1022.9 hPa WSW 2.3 km/h 4.8 km/h 93% 0 mm 0 W/m2
04:09 10.4 °C 9.8 °C 1022.9 hPa WSW 2.6 km/h 4.8 km/h 93% 0 mm 0 W/m2
04:14 10.4 °C 9.8 °C 1022.9 hPa WSW 0.8 km/h 3.2 km/h 93% 0 mm 0 W/m2
04:19 10.2 °C 9.6 °C 1022.9 hPa WSW 0.3 km/h 3.2 km/h 93% 0 mm 0 W/m2
04:24 10.2 °C 9.6 °C 1022.9 hPa WSW 0.3 km/h 4.8 km/h 93% 0 mm 0 W/m2
04:29 10.1 °C 9.5 °C 1022.9 hPa WSW 1 km/h 3.2 km/h 93% 0 mm 0 W/m2
04:34 9.9 °C 9.3 °C 1022.9 hPa WSW 1.3 km/h 3.2 km/h 93% 0 mm 0 W/m2
04:38 9.7 °C 9.2 °C 1022.9 hPa WSW 0.5 km/h 3.2 km/h 93% 0 mm 0 W/m2
04:44 9.6 °C 8.8 °C 1022.9 hPa WSW 2.4 km/h 4.8 km/h 92% 0 mm 0 W/m2
04:49 9.4 °C 8.8 °C 1022.9 hPa WSW 3.9 km/h 4.8 km/h 93% 0 mm 0 W/m2
04:54 9.3 °C 8.8 °C 1022.9 hPa WSW 2.6 km/h 4.8 km/h 93% 0 mm 0 W/m2
04:59 9.3 °C 8.7 °C 1022.9 hPa WSW 0.3 km/h 3.2 km/h 93% 0 mm 0 W/m2
05:04 9.2 °C 8.6 °C 1022.9 hPa WSW 2.6 km/h 4.8 km/h 93% 0 mm 0 W/m2
05:09 9.1 °C 8.5 °C 1022.9 hPa WSW 4.3 km/h 6.4 km/h 93% 0 mm 0 W/m2
05:14 9.2 °C 8.6 °C 1022.9 hPa WSW 4 km/h 4.8 km/h 93% 0 mm 0 W/m2
05:19 9.2 °C 8.6 °C 1022.9 hPa WSW 3.9 km/h 6.4 km/h 93% 0 mm 0 W/m2
05:24 9.1 °C 8.5 °C 1022.9 hPa WSW 3.2 km/h 8 km/h 93% 0 mm 0 W/m2
05:29 9.1 °C 8.5 °C 1022.9 hPa WSW 3.4 km/h 6.4 km/h 93% 0 mm 0 W/m2
05:34 9.1 °C 8.4 °C 1022.9 hPa WSW 0.8 km/h 6.4 km/h 93% 0 mm 0 W/m2
05:39 8.9 °C 8.3 °C 1022.9 hPa WSW 4.5 km/h 6.4 km/h 93% 0 mm 0 W/m2
05:44 8.9 °C 8.3 °C 1022.9 hPa WSW 1.9 km/h 6.4 km/h 93% 0 mm 0 W/m2
05:49 8.9 °C 8.3 °C 1023.2 hPa WSW 3.2 km/h 6.4 km/h 93% 0 mm 0 W/m2
05:54 8.8 °C 8.2 °C 1023.2 hPa WSW 2.1 km/h 6.4 km/h 93% 0 mm 0 W/m2
05:59 8.8 °C 8.2 °C 1023.2 hPa WSW 3.4 km/h 8 km/h 93% 0 mm 0 W/m2
06:04 8.8 °C 8.2 °C 1023.2 hPa WSW 3.9 km/h 6.4 km/h 93% 0 mm 0 W/m2
06:09 8.8 °C 8.2 °C 1023.2 hPa WSW 4.2 km/h 8 km/h 93% 0 mm 0 W/m2
06:14 8.8 °C 8.2 °C 1023.2 hPa WSW 5.3 km/h 8 km/h 93% 0 mm 0 W/m2
06:19 8.8 °C 8.2 °C 1023.2 hPa WSW 3.2 km/h 6.4 km/h 93% 0 mm 0 W/m2
06:24 8.9 °C 8.3 °C 1023.2 hPa WSW 3.2 km/h 8 km/h 93% 0 mm 0 W/m2
06:29 8.8 °C 8.3 °C 1023.2 hPa WSW 1.8 km/h 6.4 km/h 93% 0 mm 0 W/m2
06:34 8.8 °C 8.2 °C 1023.2 hPa WSW 2.7 km/h 4.8 km/h 93% 0 mm 0 W/m2
06:39 8.7 °C 8.1 °C 1023.2 hPa WSW 0.8 km/h 3.2 km/h 93% 0 mm 0 W/m2
06:44 8.6 °C 7.9 °C 1023.2 hPa WSW 1 km/h 3.2 km/h 93% 0 mm 0 W/m2
06:49 8.4 °C 7.8 °C 1023.2 hPa WSW 1.6 km/h 4.8 km/h 93% 0 mm 0 W/m2
06:54 8.3 °C 7.8 °C 1023.2 hPa WSW 3.1 km/h 4.8 km/h 93% 0 mm 0 W/m2
06:59 8.4 °C 7.8 °C 1023.2 hPa WSW 3.4 km/h 6.4 km/h 93% 0 mm 0 W/m2
07:04 8.5 °C 7.9 °C 1023.2 hPa WSW 4.3 km/h 6.4 km/h 93% 0 mm 0 W/m2
07:09 8.6 °C 8 °C 1023.2 hPa WSW 2.3 km/h 6.4 km/h 93% 0 mm 0 W/m2
07:14 8.6 °C 8 °C 1023.6 hPa WSW 0.3 km/h 3.2 km/h 93% 0 mm 0 W/m2
07:19 8.6 °C 8.1 °C 1023.6 hPa WSW 1 km/h 3.2 km/h 93.2% 0 mm 0 W/m2
07:24 8.6 °C 8.1 °C 1023.6 hPa WSW 3.5 km/h 6.4 km/h 93.5% 0 mm 5 W/m2
07:29 8.7 °C 8.3 °C 1023.6 hPa WSW 4.2 km/h 8 km/h 94% 0 mm 7 W/m2
07:34 8.8 °C 8.4 °C 1023.6 hPa WSW 3.9 km/h 8 km/h 94% 0 mm 9 W/m2
07:39 8.9 °C 8.5 °C 1023.9 hPa WSW 2.1 km/h 6.4 km/h 94% 0 mm 9 W/m2
07:44 9 °C 8.6 °C 1023.9 hPa WSW 2.3 km/h 4.8 km/h 94% 0 mm 11 W/m2
07:49 9.2 °C 8.7 °C 1023.9 hPa WSW 1.9 km/h 4.8 km/h 94% 0 mm 11 W/m2
07:54 9.2 °C 8.8 °C 1023.9 hPa Calm   3.2 km/h 94% 0 mm 19 W/m2
07:59 9.4 °C 9.1 °C 1023.9 hPa Calm     94% 0 mm 21 W/m2
08:04 9.4 °C 9 °C 1023.9 hPa Calm     94% 0 mm 33 W/m2
08:09 9.4 °C 9 °C 1023.9 hPa WSW 0.3 km/h 4.8 km/h 94% 0 mm 35 W/m2
08:14 9.5 °C 9.1 °C 1023.9 hPa WSW 2.9 km/h 4.8 km/h 94% 0 mm 40 W/m2
08:19 9.6 °C 9.2 °C 1023.9 hPa WSW 2.3 km/h 6.4 km/h 94% 0 mm 46 W/m2
08:23 9.7 °C 9.3 °C 1023.9 hPa WSW 0.3 km/h 3.2 km/h 94% 0 mm 30 W/m2
08:29 9.7 °C 9.3 °C 1023.9 hPa WSW 0.6 km/h 3.2 km/h 94% 0 mm 49 W/m2
08:34 9.8 °C 9.4 °C 1023.6 hPa Calm   1.6 km/h 94% 0 mm 60 W/m2
08:39 9.9 °C 9.5 °C 1023.9 hPa WSW 3.4 km/h 8 km/h 94% 0 mm 60 W/m2
08:43 10 °C 9.6 °C 1023.6 hPa WSW 1.9 km/h 6.4 km/h 94% 0 mm 58 W/m2
08:49 10.1 °C 9.7 °C 1023.6 hPa WSW 2.9 km/h 8 km/h 94% 0 mm 65 W/m2
08:54 10.2 °C 9.8 °C 1023.6 hPa WSW 3.5 km/h 8 km/h 94% 0 mm 81 W/m2
08:59 10.3 °C 9.9 °C 1023.6 hPa Calm   4.8 km/h 94% 0 mm 98 W/m2
09:04 10.5 °C 10.1 °C 1023.9 hPa WSW 1.9 km/h 4.8 km/h 94% 0 mm 102 W/m2
09:09 10.7 °C 10.3 °C 1023.9 hPa WSW 3.4 km/h 8 km/h 94% 0 mm 91 W/m2
09:14 10.7 °C 10.3 °C 1023.9 hPa WSW 2.7 km/h 9.7 km/h 93.8% 0 mm 104 W/m2
09:19 10.9 °C 10.3 °C 1023.9 hPa WSW 3.5 km/h 8 km/h 93% 0 mm 127 W/m2
09:24 11.1 °C 10.5 °C 1023.9 hPa WSW 4.2 km/h 8 km/h 93% 0 mm 120 W/m2
09:29 11.2 °C 10.6 °C 1023.9 hPa WSW 5.1 km/h 11.3 km/h 93% 0 mm 95 W/m2
09:34 11.3 °C 10.7 °C 1023.9 hPa WSW 4 km/h 8 km/h 92.6% 0 mm 107 W/m2
09:39 11.4 °C 10.7 °C 1023.9 hPa WSW 6.6 km/h 12.9 km/h 92% 0 mm 100 W/m2
09:44 11.6 °C 10.8 °C 1023.9 hPa WSW 4.2 km/h 8 km/h 91.8% 0 mm 109 W/m2
09:49 11.7 °C 10.8 °C 1023.9 hPa WSW 5 km/h 9.7 km/h 91% 0 mm 104 W/m2
09:54 11.8 °C 10.9 °C 1023.9 hPa WSW 5.6 km/h 12.9 km/h 90.6% 0 mm 107 W/m2
09:59 12 °C 10.9 °C 1023.9 hPa WSW 5.5 km/h 11.3 km/h 90% 0 mm 102 W/m2
10:04 12.1 °C 10.8 °C 1023.9 hPa WSW 7.9 km/h 14.5 km/h 89% 0 mm 156 W/m2
10:09 12.2 °C 10.8 °C 1023.9 hPa WSW 6.6 km/h 12.9 km/h 88% 0 mm 162 W/m2
10:14 12.3 °C 10.8 °C 1023.9 hPa WSW 7.2 km/h 14.5 km/h 87.2% 0 mm 141 W/m2
10:19 12.6 °C 10.8 °C 1023.9 hPa WSW 7.6 km/h 19.3 km/h 86.6% 0 mm 346 W/m2
10:24 12.8 °C 10.9 °C 1023.9 hPa WSW 9 km/h 12.9 km/h 85.6% 0 mm 311 W/m2
10:29 13.1 °C 11 °C 1023.9 hPa WSW 6.8 km/h 14.5 km/h 84.8% 0 mm 287 W/m2
10:34 13.2 °C 11 °C 1023.9 hPa WSW 7.9 km/h 14.5 km/h 83.8% 0 mm 355 W/m2
10:39 13.4 °C 11.1 °C 1023.9 hPa WSW 5.1 km/h 11.3 km/h 83% 0 mm 281 W/m2
10:44 13.6 °C 11.2 °C 1023.9 hPa WSW 5.3 km/h 12.9 km/h 82.6% 0 mm 220 W/m2
10:49 13.6 °C 11.1 °C 1023.9 hPa SW 9.7 km/h 17.7 km/h 82% 0 mm 227 W/m2
10:54 13.6 °C 10.9 °C 1023.9 hPa WSW 9.8 km/h 19.3 km/h 81.2% 0 mm 288 W/m2
10:59 13.7 °C 11 °C 1023.9 hPa WSW 10.8 km/h 20.9 km/h 81% 0 mm 318 W/m2
11:04 13.9 °C 11.2 °C 1023.9 hPa WSW 7.2 km/h 16.1 km/h 81% 0 mm 413 W/m2
11:09 14.2 °C 11.3 °C 1023.9 hPa WSW 11.9 km/h 17.7 km/h 80.4% 0 mm 413 W/m2
11:14 14.1 °C 11.2 °C 1023.9 hPa WSW 10.9 km/h 17.7 km/h 80% 0 mm 209 W/m2
11:19 13.8 °C 11.1 °C 1023.9 hPa WSW 11.9 km/h 20.9 km/h 80.8% 0 mm 167 W/m2
11:24 13.8 °C 11.2 °C 1023.9 hPa WSW 6.8 km/h 17.7 km/h 81% 0 mm 192 W/m2
11:29 13.9 °C 11.2 °C 1023.9 hPa WSW 10.3 km/h 17.7 km/h 81% 0 mm 192 W/m2
11:34 13.8 °C 11.1 °C 1023.9 hPa SW 11.9 km/h 20.9 km/h 81% 0 mm 174 W/m2
11:39 13.8 °C 11.2 °C 1023.9 hPa SW 8.4 km/h 17.7 km/h 81.6% 0 mm 181 W/m2
11:44 13.8 °C 11.2 °C 1023.9 hPa WSW 11.9 km/h 19.3 km/h 81.8% 0 mm 174 W/m2
11:49 13.8 °C 11.3 °C 1023.9 hPa WSW 10 km/h 19.3 km/h 82% 0 mm 172 W/m2
11:53 13.9 °C 11.4 °C 1023.6 hPa WSW 7.9 km/h 14.5 km/h 82% 0 mm 169 W/m2
11:59 13.9 °C 11.4 °C 1023.6 hPa WSW 8.2 km/h 17.7 km/h 82% 0 mm 181 W/m2
12:04 13.9 °C 11.3 °C 1023.6 hPa WSW 8.7 km/h 20.9 km/h 81.6% 0 mm 162 W/m2
12:09 13.9 °C 11.4 °C 1023.6 hPa WSW 7.7 km/h 16.1 km/h 82% 0 mm 162 W/m2
12:14 13.9 °C 11.4 °C 1023.6 hPa SW 12.6 km/h 22.5 km/h 82% 0 mm 162 W/m2
12:19 13.9 °C 11.4 °C 1023.6 hPa SW 11.3 km/h 19.3 km/h 82% 0 mm 172 W/m2
12:24 13.9 °C 11.4 °C 1023.2 hPa SW 6.6 km/h 19.3 km/h 82% 0 mm 171 W/m2
12:29 14.1 °C 11.5 °C 1023.2 hPa SSW 7.7 km/h 19.3 km/h 81.8% 0 mm 151 W/m2
12:34 14.1 °C 11.5 °C 1023.2 hPa SW 11.6 km/h 19.3 km/h 81.4% 0 mm 155 W/m2
12:39 14.1 °C 11.4 °C 1023.2 hPa WSW 12.6 km/h 24.1 km/h 81% 0 mm 169 W/m2
12:44 14.1 °C 11.4 °C 1023.2 hPa WSW 12.7 km/h 20.9 km/h 81% 0 mm 186 W/m2
12:49 14.2 °C 11.4 °C 1023.2 hPa WSW 17.4 km/h 20.9 km/h 81% 0 mm 218 W/m2
12:54 14.2 °C 11.5 °C 1023.2 hPa SW 7.1 km/h 20.9 km/h 81% 0 mm 237 W/m2
12:59 14.3 °C 11.7 °C 1023.2 hPa SW 8.4 km/h 16.1 km/h 81.4% 0 mm 214 W/m2
13:04 14.3 °C 11.7 °C 1023.2 hPa SW 11.4 km/h 19.3 km/h 81.8% 0 mm 186 W/m2
13:09 14.3 °C 11.7 °C 1023.2 hPa SW 13.7 km/h 20.9 km/h 81.5% 0 mm 163 W/m2
13:14 14.3 °C 11.7 °C 1023.2 hPa WSW 10.6 km/h 19.3 km/h 81.8% 0 mm 163 W/m2
13:19 14.3 °C 11.8 °C 1023.2 hPa SW 11.6 km/h 19.3 km/h 82% 0 mm 127 W/m2
13:24 14.2 °C 11.7 °C 1023.2 hPa SW 10 km/h 19.3 km/h 82% 0 mm 134 W/m2
13:29 14.2 °C 11.7 °C 1022.9 hPa SSW 8.9 km/h 19.3 km/h 82% 0 mm 144 W/m2
13:34 14.2 °C 11.7 °C 1022.9 hPa SW 9.2 km/h 19.3 km/h 82.2% 0 mm 153 W/m2
13:39 14.2 °C 11.8 °C 1022.9 hPa SW 10.5 km/h 16.1 km/h 83% 0 mm 162 W/m2
13:44 14.2 °C 11.7 °C 1022.9 hPa SW 9.8 km/h 14.5 km/h 83% 0 mm 144 W/m2
13:49 14.2 °C 11.8 °C 1022.9 hPa SW 8.4 km/h 14.5 km/h 83% 0 mm 146 W/m2
13:54 14.2 °C 11.8 °C 1022.9 hPa SW 7.6 km/h 14.5 km/h 83% 0 mm 118 W/m2
13:58 14.2 °C 11.7 °C 1022.9 hPa SW 10.9 km/h 17.7 km/h 83% 0 mm 105 W/m2
14:04 14 °C 11.6 °C 1022.9 hPa SW 7.9 km/h 17.7 km/h 83% 0 mm 104 W/m2
14:09 14 °C 11.8 °C 1022.9 hPa SW 8.9 km/h 16.1 km/h 84% 0 mm 107 W/m2
14:14 13.9 °C 11.7 °C 1022.9 hPa SW 8.9 km/h 16.1 km/h 84% 0 mm 120 W/m2
14:19 13.9 °C 11.7 °C 1022.9 hPa SW 8 km/h 14.5 km/h 84% 0 mm 121 W/m2
14:24 13.9 °C 11.8 °C 1022.9 hPa SW 8.7 km/h 12.9 km/h 84% 0 mm 116 W/m2
14:29 13.9 °C 11.8 °C 1022.9 hPa SW 9.3 km/h 20.9 km/h 84% 0 mm 88 W/m2
14:34 13.9 °C 11.7 °C 1022.6 hPa SW 5.8 km/h 17.7 km/h 84% 0 mm 102 W/m2
14:39 13.9 °C 11.7 °C 1022.6 hPa SW 8.4 km/h 19.3 km/h 84% 0 mm 113 W/m2
14:44 13.9 °C 11.7 °C 1022.6 hPa SSW 8 km/h 14.5 km/h 84% 0 mm 116 W/m2
14:49 14 °C 11.8 °C 1022.9 hPa SW 9.3 km/h 19.3 km/h 84% 0 mm 114 W/m2
14:54 14 °C 11.8 °C 1022.9 hPa SW 7.6 km/h 16.1 km/h 84% 0 mm 76 W/m2
14:59 13.9 °C 11.7 °C 1022.9 hPa SW 6.9 km/h 16.1 km/h 84% 0 mm 46 W/m2
15:04 13.9 °C 11.7 °C 1022.6 hPa SW 7.1 km/h 11.3 km/h 84% 0 mm 49 W/m2
15:09 13.9 °C 11.7 °C 1022.6 hPa SW 8.7 km/h 17.7 km/h 84% 0 mm 49 W/m2
15:14 13.8 °C 11.7 °C 1022.6 hPa SW 5.6 km/h 12.9 km/h 84% 0 mm 47 W/m2
15:19 13.8 °C 11.7 °C 1022.6 hPa SW 7.9 km/h 14.5 km/h 84.4% 0 mm 47 W/m2
15:24 13.7 °C 11.7 °C 1022.6 hPa SW 6.6 km/h 16.1 km/h 85% 0 mm 44 W/m2
15:29 13.7 °C 11.7 °C 1022.6 hPa SSW 5.8 km/h 17.7 km/h 85% 0 mm 53 W/m2
15:34 13.6 °C 11.7 °C 1022.6 hPa SSW 5.3 km/h 14.5 km/h 85.8% 0 mm 44 W/m2
15:39 13.4 °C 11.7 °C 1022.6 hPa SSW 7.2 km/h 12.9 km/h 86% 0 mm 33 W/m2
15:44 13.4 °C 11.6 °C 1022.6 hPa SSW 4.2 km/h 12.9 km/h 86% 0 mm 32 W/m2
15:49 13.4 °C 11.6 °C 1022.6 hPa SSW 6.1 km/h 14.5 km/h 86% 0 mm 33 W/m2
15:54 13.3 °C 11.7 °C 1022.6 hPa SSW 4.7 km/h 11.3 km/h 87% 0 mm 26 W/m2
15:59 13.3 °C 11.7 °C 1022.6 hPa SSW 7.7 km/h 12.9 km/h 87% 0 mm 16 W/m2
16:04 13.2 °C 11.7 °C 1022.6 hPa SSW 6.1 km/h 12.9 km/h 87% 0 mm 14 W/m2
16:09 13.2 °C 11.6 °C 1022.6 hPa SSW 7.1 km/h 14.5 km/h 87% 0 mm 11 W/m2
16:14 13.2 °C 11.6 °C 1022.6 hPa SSW 9.2 km/h 14.5 km/h 87% 0 mm 7 W/m2
16:19 13.1 °C 11.5 °C 1022.6 hPa SSW 5.8 km/h 11.3 km/h 87% 0 mm 7 W/m2
16:23 13.1 °C 11.5 °C 1022.6 hPa SSW 6.8 km/h 16.1 km/h 87% 0 mm 5 W/m2
16:29 13.1 °C 11.5 °C 1022.6 hPa SW 6.4 km/h 16.1 km/h 87% 0 mm 5 W/m2
16:34 13 °C 11.4 °C 1022.6 hPa SW 7.4 km/h 14.5 km/h 87% 0 mm 0 W/m2
16:39 12.9 °C 11.3 °C 1022.6 hPa SSW 6.6 km/h 14.5 km/h 87% 0 mm 0 W/m2
16:44 12.9 °C 11.3 °C 1022.6 hPa SSW 5.8 km/h 14.5 km/h 87% 0 mm 0 W/m2
16:49 12.9 °C 11.3 °C 1022.6 hPa SSW 6.3 km/h 11.3 km/h 87% 0 mm 0 W/m2
16:54 12.9 °C 11.3 °C 1022.6 hPa SSW 3.5 km/h 12.9 km/h 87% 0 mm 0 W/m2
16:59 12.9 °C 11.3 °C 1022.9 hPa SSW 5.3 km/h 12.9 km/h 87% 0 mm 0 W/m2
17:04 12.9 °C 11.3 °C 1022.9 hPa SSW 5 km/h 11.3 km/h 87% 0 mm 0 W/m2
17:09 12.8 °C 11.2 °C 1022.9 hPa SSW 3.5 km/h 11.3 km/h 87% 0 mm 0 W/m2
17:14 12.8 °C 11.2 °C 1022.9 hPa SSW 3.4 km/h 9.7 km/h 87% 0 mm 0 W/m2
17:19 12.8 °C 11.2 °C 1022.9 hPa SSW 2.4 km/h 8 km/h 87% 0 mm 0 W/m2
17:24 12.8 °C 11.2 °C 1022.9 hPa SSW 3.7 km/h 11.3 km/h 87% 0 mm 0 W/m2
17:29 12.8 °C 11.2 °C 1022.9 hPa SSW 4 km/h 9.7 km/h 87% 0 mm 0 W/m2
17:34 12.8 °C 11.2 °C 1022.9 hPa SSW 3.2 km/h 8 km/h 87% 0 mm 0 W/m2
17:39 12.7 °C 11.1 °C 1022.9 hPa SSW 4.7 km/h 8 km/h 87% 0 mm 0 W/m2
17:44 12.7 °C 11.1 °C 1022.9 hPa SSW 6.8 km/h 11.3 km/h 86.8% 0 mm 0 W/m2
17:49 12.7 °C 10.9 °C 1022.9 hPa SSW 6.4 km/h 12.9 km/h 86% 0 mm 0 W/m2
17:54 12.6 °C 10.8 °C 1022.9 hPa SSW 5.3 km/h 12.9 km/h 86% 0 mm 0 W/m2
17:59 12.6 °C 10.8 °C 1023.2 hPa SSW 5 km/h 12.9 km/h 86% 0 mm 0 W/m2
18:04 12.6 °C 10.8 °C 1023.2 hPa SSW 6.4 km/h 12.9 km/h 86% 0 mm 0 W/m2
18:09 12.6 °C 10.8 °C 1023.2 hPa SSW 9.3 km/h 14.5 km/h 86% 0 mm 0 W/m2
18:14 12.6 °C 10.8 °C 1023.2 hPa SSW 4.7 km/h 12.9 km/h 86% 0 mm 0 W/m2
18:19 12.5 °C 10.7 °C 1022.9 hPa SSW 3.9 km/h 8 km/h 86% 0 mm 0 W/m2
18:24 12.4 °C 10.7 °C 1022.9 hPa SSW 5.1 km/h 9.7 km/h 86.4% 0 mm 0 W/m2
18:29 12.4 °C 10.8 °C 1022.9 hPa SSW 3.4 km/h 11.3 km/h 87% 0 mm 0 W/m2
18:34 12.4 °C 10.8 °C 1022.9 hPa SSW 5.6 km/h 14.5 km/h 87% 0 mm 0 W/m2
18:39 12.4 °C 10.8 °C 1022.9 hPa SSW 5.8 km/h 11.3 km/h 87% 0 mm 0 W/m2
18:44 12.3 °C 10.7 °C 1023.2 hPa SSW 5.1 km/h 11.3 km/h 87% 0 mm 0 W/m2
18:49 12.3 °C 10.7 °C 1023.2 hPa SSW 5.6 km/h 9.7 km/h 87% 0 mm 0 W/m2
18:54 12.3 °C 10.7 °C 1023.2 hPa SSW 5.3 km/h 14.5 km/h 87% 0 mm 0 W/m2
18:59 12.3 °C 10.7 °C 1022.9 hPa SSW 6.4 km/h 14.5 km/h 87% 0 mm 0 W/m2
19:04 12.3 °C 10.7 °C 1022.9 hPa SSW 7.2 km/h 14.5 km/h 87% 0 mm 0 W/m2
19:09 12.3 °C 10.7 °C 1023.2 hPa SSW 5 km/h 16.1 km/h 87% 0 mm 0 W/m2
19:14 12.3 °C 10.8 °C 1023.2 hPa SSW 8.4 km/h 12.9 km/h 87.4% 0 mm 0 W/m2
19:19 12.2 °C 10.8 °C 1023.2 hPa SSW 3.4 km/h 11.3 km/h 88% 0 mm 0 W/m2
19:23 12.2 °C 10.8 °C 1023.2 hPa SSW 7.2 km/h 14.5 km/h 88% 0 mm 0 W/m2
19:29 12.2 °C 10.8 °C 1023.2 hPa SSW 6 km/h 11.3 km/h 88% 0 mm 0 W/m2
19:34 12.2 °C 10.8 °C 1022.9 hPa SSW 5.8 km/h 12.9 km/h 88% 0 mm 0 W/m2
19:39 12.2 °C 10.8 °C 1022.9 hPa SSW 5.6 km/h 14.5 km/h 88% 0 mm 0 W/m2
19:44 12.2 °C 10.8 °C 1023.2 hPa SW 8.7 km/h 14.5 km/h 88% 0 mm 0 W/m2
19:49 12.2 °C 10.8 °C 1022.9 hPa SW 8 km/h 16.1 km/h 88% 0 mm 0 W/m2
19:54 12.2 °C 10.8 °C 1022.9 hPa WSW 3.7 km/h 11.3 km/h 88% 0 mm 0 W/m2
19:59 12.2 °C 10.8 °C 1023.2 hPa WSW 3.5 km/h 11.3 km/h 88% 0 mm 0 W/m2
20:04 12.2 °C 10.8 °C 1023.2 hPa WSW 2.1 km/h 9.7 km/h 88% 0 mm 0 W/m2
20:09 12.2 °C 10.8 °C 1023.2 hPa WSW 8.2 km/h 14.5 km/h 88% 0 mm 0 W/m2
20:14 12.2 °C 10.8 °C 1023.2 hPa WSW 6.4 km/h 11.3 km/h 88% 0 mm 0 W/m2
20:19 12.2 °C 10.8 °C 1023.2 hPa WSW 5.1 km/h 12.9 km/h 88% 0 mm 0 W/m2
20:24 12.2 °C 10.8 °C 1023.2 hPa WSW 7.1 km/h 14.5 km/h 88% 0 mm 0 W/m2
20:29 12.2 °C 10.8 °C 1023.2 hPa SW 7.2 km/h 14.5 km/h 88% 0 mm 0 W/m2
20:34 12.2 °C 10.8 °C 1023.2 hPa SW 5.8 km/h 14.5 km/h 88% 0 mm 0 W/m2
20:39 12.2 °C 10.8 °C 1023.2 hPa WSW 8.2 km/h 19.3 km/h 88% 0 mm 0 W/m2
20:44 12.2 °C 10.8 °C 1023.2 hPa WSW 10.1 km/h 16.1 km/h 88% 0 mm 0 W/m2
20:49 12.2 °C 10.8 °C 1023.2 hPa SW 10 km/h 24.1 km/h 88% 0 mm 0 W/m2
20:54 12.2 °C 10.7 °C 1022.9 hPa SW 9.8 km/h 16.1 km/h 88% 0 mm 0 W/m2
20:59 12.1 °C 10.7 °C 1022.9 hPa SW 9.8 km/h 14.5 km/h 88% 0 mm 0 W/m2
21:04 12.1 °C 10.7 °C 1023.2 hPa WSW 9.3 km/h 16.1 km/h 88% 0 mm 0 W/m2
21:09 12 °C 10.7 °C 1022.9 hPa WSW 7.1 km/h 16.1 km/h 88.8% 0 mm 0 W/m2
21:14 12 °C 10.7 °C 1023.2 hPa WSW 8.2 km/h 22.5 km/h 89% 0 mm 0 W/m2
21:18 12 °C 10.7 °C 1023.2 hPa WSW 8 km/h 16.1 km/h 89% 0 mm 0 W/m2
21:24 12 °C 10.7 °C 1023.2 hPa WSW 8 km/h 11.3 km/h 89% 0 mm 0 W/m2
21:29 11.9 °C 10.7 °C 1023.2 hPa WSW 3.7 km/h 11.3 km/h 89% 0 mm 0 W/m2
21:34 11.9 °C 10.6 °C 1023.2 hPa WSW 8 km/h 14.5 km/h 89% 0 mm 0 W/m2
21:39 11.9 °C 10.7 °C 1023.2 hPa WSW 4.7 km/h 14.5 km/h 89.2% 0 mm 0 W/m2
21:44 11.9 °C 10.8 °C 1023.2 hPa WSW 5.6 km/h 14.5 km/h 90% 0 mm 0 W/m2
21:49 11.9 °C 10.8 °C 1023.2 hPa WSW 6 km/h 11.3 km/h 90% 0 mm 0 W/m2
21:54 11.9 °C 10.7 °C 1023.2 hPa WSW 5.3 km/h 12.9 km/h 89.8% 0 mm 0 W/m2
21:59 11.9 °C 10.8 °C 1023.2 hPa WSW 6.6 km/h 14.5 km/h 90% 0 mm 0 W/m2
22:04 11.9 °C 10.8 °C 1023.2 hPa WSW 12.9 km/h 14.5 km/h 90% 0 mm 0 W/m2
22:09 11.9 °C 10.8 °C 1023.2 hPa WSW 8 km/h 12.9 km/h 90% 0 mm 0 W/m2
22:14 11.9 °C 10.8 °C 1023.2 hPa WSW 3.4 km/h 12.9 km/h 90% 0 mm 0 W/m2
22:19 11.9 °C 10.8 °C 1023.2 hPa WSW 6 km/h 12.9 km/h 90% 0 mm 0 W/m2
22:23 11.9 °C 10.8 °C 1023.2 hPa WSW 4.3 km/h 11.3 km/h 90% 0 mm 0 W/m2
22:29 11.9 °C 10.8 °C 1022.9 hPa WSW 4 km/h 8 km/h 90% 0 mm 0 W/m2
22:34 11.9 °C 10.8 °C 1023.2 hPa WSW 8 km/h 12.9 km/h 90% 0 mm 0 W/m2
22:39 11.9 °C 10.8 °C 1023.2 hPa WSW 4.5 km/h 9.7 km/h 90% 0 mm 0 W/m2
22:44 11.8 °C 10.8 °C 1023.2 hPa WSW 1.1 km/h 8 km/h 90% 0 mm 0 W/m2
22:49 11.9 °C 10.8 °C 1023.2 hPa WSW 2.3 km/h 6.4 km/h 90.4% 0 mm 0 W/m2
22:54 11.9 °C 10.9 °C 1023.2 hPa WSW 5.8 km/h 12.9 km/h 90.8% 0 mm 0 W/m2
22:59 11.9 °C 11 °C 1023.2 hPa WSW 6.8 km/h 12.9 km/h 91% 0 mm 0 W/m2
23:04 11.8 °C 10.9 °C 1023.2 hPa WSW 4 km/h 12.9 km/h 91% 0 mm 0 W/m2
23:09 11.8 °C 10.9 °C 1023.2 hPa WSW 4.5 km/h 9.7 km/h 91% 0 mm 0 W/m2
23:14 11.9 °C 11 °C 1022.9 hPa WSW 6.1 km/h 11.3 km/h 91% 0 mm 0 W/m2
23:19 11.9 °C 11 °C 1022.9 hPa WSW 3.9 km/h 14.5 km/h 91% 0 mm 0 W/m2
23:23 11.9 °C 11 °C 1022.9 hPa WSW 7.6 km/h 14.5 km/h 91% 0 mm 0 W/m2
23:29 11.9 °C 11 °C 1022.9 hPa WSW 6.4 km/h 12.9 km/h 91% 0 mm 0 W/m2
23:34 11.9 °C 11 °C 1022.9 hPa WSW 7.2 km/h 11.3 km/h 91% 0 mm 0 W/m2
23:39 11.9 °C 10.9 °C 1022.9 hPa WSW 5.1 km/h 12.9 km/h 90.4% 0 mm 0 W/m2
23:44 11.9 °C 10.8 °C 1022.9 hPa WSW 6 km/h 14.5 km/h 90% 0 mm 0 W/m2
23:49 11.9 °C 10.8 °C 1022.9 hPa WSW 4.3 km/h 14.5 km/h 90% 0 mm 0 W/m2
23:54 12 °C 10.9 °C 1022.9 hPa WSW 5.8 km/h 11.3 km/h 90% 0 mm 0 W/m2
23:59 11.9 °C 10.8 °C 1022.9 hPa WSW 3.5 km/h 9.7 km/h 90% 0 mm 0 W/m2
Bath Spa Weather
Compliments of Weather Underground - 2 mb